createdAt,value
2022-12-01T00:01:30.141Z,5.80
2022-12-01T00:03:58.129Z,5.80
2022-12-01T00:06:27.456Z,5.70
2022-12-01T00:09:17.984Z,5.80
2022-12-01T00:11:47.717Z,5.80
2022-12-01T00:14:16.335Z,5.80
2022-12-01T00:16:44.914Z,5.80
2022-12-01T00:19:13.030Z,5.70
2022-12-01T00:21:42.435Z,5.80
2022-12-01T00:24:11.619Z,5.70
2022-12-01T00:26:40.232Z,5.70
2022-12-01T00:29:08.194Z,5.70
2022-12-01T00:31:36.450Z,5.70
2022-12-01T00:34:08.238Z,5.70
2022-12-01T00:36:39.419Z,5.60
2022-12-01T00:39:09.086Z,5.60
2022-12-01T00:41:37.038Z,5.60
2022-12-01T00:44:05.508Z,5.60
2022-12-01T00:46:33.530Z,5.70
2022-12-01T00:49:01.777Z,5.70
2022-12-01T00:51:29.765Z,5.70
2022-12-01T00:53:57.656Z,5.70
2022-12-01T00:56:26.936Z,5.70
2022-12-01T00:58:54.856Z,5.70
2022-12-01T01:01:22.855Z,5.70
2022-12-01T01:03:50.906Z,5.60
2022-12-01T01:06:19.005Z,5.60
2022-12-01T01:08:46.886Z,5.50
2022-12-01T01:11:14.822Z,5.60
2022-12-01T01:13:44.110Z,5.40
2022-12-01T01:16:16.102Z,5.40
2022-12-01T01:18:44.105Z,5.40
2022-12-01T01:21:15.304Z,5.40
2022-12-01T01:23:43.417Z,5.30
2022-12-01T01:26:15.017Z,5.30
2022-12-01T01:28:44.744Z,5.10
2022-12-01T01:31:14.425Z,5.00
2022-12-01T01:33:42.752Z,5.00
2022-12-01T01:36:11.265Z,5.00
2022-12-01T01:38:39.179Z,4.90
2022-12-01T01:41:08.268Z,4.90
2022-12-01T01:43:45.939Z,4.90
2022-12-01T01:46:16.406Z,4.80
2022-12-01T01:48:49.074Z,4.80
2022-12-01T01:51:20.526Z,4.80
2022-12-01T01:53:50.157Z,4.80
2022-12-01T01:56:18.261Z,4.80
2022-12-01T01:58:48.074Z,4.90
2022-12-01T02:01:15.993Z,4.80
2022-12-01T02:03:44.768Z,4.80
2022-12-01T02:06:13.678Z,4.90
2022-12-01T02:08:41.516Z,4.80
2022-12-01T02:11:34.510Z,4.90
2022-12-01T02:14:10.589Z,4.90
2022-12-01T02:16:47.822Z,4.80
2022-12-01T02:19:43.534Z,4.90
2022-12-01T02:22:24.168Z,4.90
2022-12-01T02:25:28.631Z,4.80
2022-12-01T02:28:33.924Z,4.80
2022-12-01T02:31:10.545Z,4.80
2022-12-01T02:33:44.855Z,4.80
2022-12-01T02:36:20.815Z,4.80
2022-12-01T02:38:55.333Z,4.80
2022-12-01T02:41:29.492Z,4.80
2022-12-01T02:44:04.213Z,4.90
2022-12-01T02:46:38.370Z,4.80
2022-12-01T02:49:09.685Z,4.90
2022-12-01T02:51:39.413Z,4.80
2022-12-01T02:54:07.619Z,4.90
2022-12-01T02:56:35.641Z,4.90
2022-12-01T02:59:03.674Z,4.90
2022-12-01T03:01:45.021Z,4.90
2022-12-01T03:04:30.388Z,4.80
2022-12-01T03:07:08.247Z,4.80
2022-12-01T03:09:48.066Z,4.90
2022-12-01T03:12:24.462Z,4.90
2022-12-01T03:15:02.072Z,4.80
2022-12-01T03:17:38.241Z,4.80
2022-12-01T03:20:11.685Z,4.70
2022-12-01T03:22:45.050Z,4.70
2022-12-01T03:25:14.282Z,4.70
2022-12-01T03:28:00.901Z,4.70
2022-12-01T03:30:36.595Z,4.60
2022-12-01T03:33:10.653Z,4.70
2022-12-01T03:35:43.650Z,4.80
2022-12-01T03:38:18.355Z,4.90
2022-12-01T03:40:49.014Z,4.80
2022-12-01T03:43:29.710Z,4.80
2022-12-01T03:46:05.856Z,4.70
2022-12-01T03:48:35.498Z,4.80
2022-12-01T03:51:12.692Z,4.80
2022-12-01T03:53:50.109Z,4.60
2022-12-01T03:56:21.374Z,4.70
2022-12-01T03:58:52.317Z,4.70
2022-12-01T04:01:22.249Z,4.80
2022-12-01T04:03:51.598Z,4.80
2022-12-01T04:06:19.495Z,4.70
2022-12-01T04:08:47.373Z,4.80
2022-12-01T04:11:32.997Z,4.70
2022-12-01T04:14:01.097Z,4.70
2022-12-01T04:16:29.051Z,4.60
2022-12-01T04:18:58.434Z,4.60
2022-12-01T04:21:26.371Z,4.80
2022-12-01T04:24:03.370Z,4.80
2022-12-01T04:26:33.178Z,4.70
2022-12-01T04:29:01.605Z,4.80
2022-12-01T04:31:29.836Z,4.80
2022-12-01T04:34:00.585Z,4.70
2022-12-01T04:36:31.964Z,4.70
2022-12-01T04:39:00.201Z,4.60
2022-12-01T04:41:28.183Z,4.70
2022-12-01T04:43:56.346Z,4.60
2022-12-01T04:46:25.558Z,4.50
2022-12-01T04:48:53.541Z,4.60
2022-12-01T04:51:23.185Z,4.60
2022-12-01T04:53:51.146Z,4.60
2022-12-01T04:56:19.160Z,4.60
2022-12-01T04:58:47.213Z,4.50
2022-12-01T05:01:17.208Z,4.50
2022-12-01T05:03:46.694Z,4.50
2022-12-01T05:06:16.939Z,4.40
2022-12-01T05:08:46.672Z,4.50
2022-12-01T05:11:15.536Z,4.50
2022-12-01T05:13:45.095Z,4.50
2022-12-01T05:16:14.858Z,4.50
2022-12-01T05:18:45.784Z,4.40
2022-12-01T05:21:12.804Z,4.40
2022-12-01T05:23:40.706Z,4.30
2022-12-01T05:26:10.550Z,4.20
2022-12-01T05:28:39.091Z,4.30
2022-12-01T05:31:07.185Z,4.40
2022-12-01T05:33:35.068Z,4.40
2022-12-01T05:36:02.998Z,4.30
2022-12-01T05:38:30.896Z,4.40
2022-12-01T05:40:58.764Z,4.40
2022-12-01T05:43:29.625Z,4.40
2022-12-01T05:45:58.370Z,4.30
2022-12-01T05:48:26.823Z,4.30
2022-12-01T05:50:54.783Z,4.40
2022-12-01T05:53:23.176Z,4.40
2022-12-01T05:55:54.181Z,4.50
2022-12-01T05:58:22.109Z,4.40
2022-12-01T06:00:51.347Z,4.50
2022-12-01T06:03:19.320Z,4.40
2022-12-01T06:05:47.282Z,4.40
2022-12-01T06:08:15.409Z,4.30
2022-12-01T06:10:43.417Z,4.30
2022-12-01T06:13:11.639Z,4.30
2022-12-01T06:15:39.562Z,4.40
2022-12-01T06:18:08.874Z,4.30
2022-12-01T06:20:36.973Z,4.20
2022-12-01T06:23:04.927Z,4.20
2022-12-01T06:25:32.854Z,4.20
2022-12-01T06:28:01.127Z,4.20
2022-12-01T06:30:28.985Z,4.10
2022-12-01T06:32:56.868Z,4.10
2022-12-01T06:35:26.094Z,4.00
2022-12-01T06:37:54.861Z,4.10
2022-12-01T06:40:23.123Z,4.00
2022-12-01T06:42:51.055Z,4.10
2022-12-01T06:45:19.027Z,4.10
2022-12-01T06:47:48.099Z,4.10
2022-12-01T06:50:16.197Z,4.10
2022-12-01T06:52:45.646Z,4.10
2022-12-01T06:55:13.783Z,4.10
2022-12-01T06:57:43.268Z,4.10
2022-12-01T07:00:12.629Z,4.10
2022-12-01T07:02:41.075Z,4.10
2022-12-01T07:05:09.730Z,4.10
2022-12-01T07:07:38.564Z,4.10
2022-12-01T07:10:10.395Z,4.10
2022-12-01T07:12:38.434Z,4.20
2022-12-01T07:15:08.855Z,4.20
2022-12-01T07:17:37.407Z,4.10
2022-12-01T07:20:06.134Z,4.10
2022-12-01T07:22:34.067Z,4.20
2022-12-01T07:25:01.925Z,4.20
2022-12-01T07:27:32.704Z,4.20
2022-12-01T07:30:00.644Z,4.10
2022-12-01T07:32:28.641Z,4.10
2022-12-01T07:34:56.560Z,4.10
2022-12-01T07:37:25.254Z,4.20
2022-12-01T07:39:53.122Z,4.20
2022-12-01T07:42:20.998Z,4.20
2022-12-01T07:44:50.296Z,4.20
2022-12-01T07:47:19.195Z,4.30
2022-12-01T07:49:47.495Z,4.30
2022-12-01T07:52:15.772Z,4.20
2022-12-01T07:54:43.716Z,4.20
2022-12-01T07:57:14.297Z,4.20
2022-12-01T07:59:42.565Z,4.10
2022-12-01T08:02:12.330Z,4.20
2022-12-01T08:04:40.833Z,4.20
2022-12-01T08:07:08.847Z,4.20
2022-12-01T08:09:37.199Z,4.10
2022-12-01T08:12:05.494Z,4.20
2022-12-01T08:14:33.757Z,4.10
2022-12-01T08:17:01.648Z,4.10
2022-12-01T08:19:32.023Z,4.10
2022-12-01T08:21:59.925Z,3.90
2022-12-01T08:24:28.040Z,4.10
2022-12-01T08:26:55.913Z,3.90
2022-12-01T08:29:23.819Z,3.90
2022-12-01T08:31:51.766Z,3.80
2022-12-01T08:34:19.761Z,3.80
2022-12-01T08:36:49.021Z,3.90
2022-12-01T08:39:17.146Z,3.70
2022-12-01T08:41:45.067Z,3.70
2022-12-01T08:44:13.192Z,3.90
2022-12-01T08:46:41.246Z,3.90
2022-12-01T08:49:09.187Z,4.00
2022-12-01T08:51:37.418Z,3.90
2022-12-01T08:54:07.075Z,3.90
2022-12-01T08:56:37.589Z,4.00
2022-12-01T08:59:06.424Z,4.10
2022-12-01T09:01:34.816Z,4.00
2022-12-01T09:04:08.488Z,3.90
2022-12-01T09:06:40.824Z,4.00
2022-12-01T09:09:11.301Z,4.00
2022-12-01T09:11:39.954Z,4.00
2022-12-01T09:14:08.095Z,4.00
2022-12-01T09:16:36.380Z,4.00
2022-12-01T09:19:04.879Z,4.00
2022-12-01T09:21:34.774Z,4.10
2022-12-01T09:24:03.594Z,4.10
2022-12-01T09:26:33.341Z,4.10
2022-12-01T09:29:06.273Z,4.10
2022-12-01T09:31:34.499Z,4.20
2022-12-01T09:34:03.883Z,4.10
2022-12-01T09:36:35.254Z,4.20
2022-12-01T09:39:04.049Z,4.30
2022-12-01T09:41:36.321Z,4.30
2022-12-01T09:44:14.159Z,4.20
2022-12-01T09:46:47.911Z,4.30
2022-12-01T09:49:20.201Z,4.40
2022-12-01T09:51:48.321Z,4.50
2022-12-01T09:54:16.438Z,4.40
2022-12-01T09:56:49.415Z,4.50
2022-12-01T09:59:22.532Z,4.60
2022-12-01T10:01:54.902Z,4.60
2022-12-01T10:04:30.097Z,4.60
2022-12-01T10:07:01.886Z,4.60
2022-12-01T10:09:40.271Z,4.50
2022-12-01T10:12:17.516Z,4.50
2022-12-01T10:14:46.364Z,4.50
2022-12-01T10:17:27.672Z,4.50
2022-12-01T10:20:04.145Z,4.70
2022-12-01T10:22:53.872Z,4.80
2022-12-01T10:25:24.204Z,4.80
2022-12-01T10:28:15.540Z,4.90
2022-12-01T10:30:50.984Z,5.00
2022-12-01T10:33:24.636Z,5.00
2022-12-01T10:35:53.403Z,5.10
2022-12-01T10:38:27.990Z,5.00
2022-12-01T10:40:58.487Z,4.90
2022-12-01T10:43:32.757Z,4.90
2022-12-01T10:46:02.448Z,4.90
2022-12-01T10:48:30.576Z,4.80
2022-12-01T10:51:16.875Z,4.70
2022-12-01T10:53:44.809Z,4.70
2022-12-01T10:56:16.419Z,4.80
2022-12-01T10:58:50.239Z,4.90
2022-12-01T11:01:22.058Z,4.90
2022-12-01T11:03:57.673Z,4.80
2022-12-01T11:06:27.778Z,4.70
2022-12-01T11:08:58.946Z,4.70
2022-12-01T11:11:32.059Z,4.90
2022-12-01T11:14:08.418Z,4.90
2022-12-01T11:16:41.004Z,4.80
2022-12-01T11:19:28.004Z,4.80
2022-12-01T11:21:57.978Z,4.80
2022-12-01T11:24:33.630Z,4.90
2022-12-01T11:27:02.346Z,4.90
2022-12-01T11:29:36.226Z,4.90
2022-12-01T11:32:17.787Z,5.00
2022-12-01T11:34:51.487Z,5.10
2022-12-01T11:37:24.028Z,5.20
2022-12-01T11:39:53.073Z,5.20
2022-12-01T11:42:25.120Z,5.20
2022-12-01T11:44:57.009Z,5.20
2022-12-01T11:47:27.004Z,5.00
2022-12-01T11:49:57.603Z,4.90
2022-12-01T11:52:30.143Z,5.00
2022-12-01T11:55:05.584Z,5.20
2022-12-01T11:57:38.696Z,5.10
2022-12-01T12:00:14.748Z,5.10
2022-12-01T12:02:53.956Z,5.20
2022-12-01T12:05:42.498Z,5.30
2022-12-01T12:08:17.523Z,5.30
2022-12-01T12:10:56.863Z,5.30
2022-12-01T12:13:46.041Z,5.40
2022-12-01T12:16:26.292Z,5.30
2022-12-01T12:19:10.318Z,5.10
2022-12-01T12:21:45.870Z,5.20
2022-12-01T12:24:29.369Z,5.20
2022-12-01T12:27:05.546Z,5.10
2022-12-01T12:29:50.112Z,5.20
2022-12-01T12:32:35.367Z,5.20
2022-12-01T12:35:18.909Z,5.10
2022-12-01T12:37:55.681Z,5.00
2022-12-01T12:40:55.770Z,5.00
2022-12-01T12:43:31.535Z,5.20
2022-12-01T12:46:04.601Z,5.30
2022-12-01T12:49:19.270Z,5.10
2022-12-01T12:51:51.661Z,5.10
2022-12-01T12:54:28.260Z,5.20
2022-12-01T12:57:01.455Z,5.20
2022-12-01T12:59:35.393Z,5.10
2022-12-01T13:02:13.524Z,5.10
2022-12-01T13:04:49.094Z,5.00
2022-12-01T13:07:33.247Z,5.10
2022-12-01T13:10:08.047Z,5.10
2022-12-01T13:12:40.390Z,5.20
2022-12-01T13:15:16.557Z,5.20
2022-12-01T13:17:49.247Z,5.30
2022-12-01T13:20:22.175Z,5.30
2022-12-01T13:22:51.040Z,5.40
2022-12-01T13:25:24.122Z,5.50
2022-12-01T13:27:53.278Z,5.60
2022-12-01T13:30:23.844Z,5.50
2022-12-01T13:32:59.843Z,5.60
2022-12-01T13:35:31.878Z,5.50
2022-12-01T13:38:21.384Z,5.50
2022-12-01T13:40:50.157Z,5.60
2022-12-01T13:43:21.303Z,5.70
2022-12-01T13:45:50.673Z,5.80
2022-12-01T13:48:30.522Z,5.80
2022-12-01T13:51:02.729Z,5.80
2022-12-01T13:53:36.124Z,5.90
2022-12-01T13:56:28.487Z,5.70
2022-12-01T13:59:03.604Z,5.70
2022-12-01T14:01:46.446Z,5.70
2022-12-01T14:04:32.408Z,5.60
2022-12-01T14:07:27.517Z,5.60
2022-12-01T14:09:59.958Z,5.60
2022-12-01T14:12:31.448Z,5.50
2022-12-01T14:15:03.900Z,5.40
2022-12-01T14:17:34.658Z,5.40
2022-12-01T14:20:08.658Z,5.40
2022-12-01T14:22:40.172Z,5.40
2022-12-01T14:25:25.634Z,5.40
2022-12-01T14:27:56.165Z,5.30
2022-12-01T14:31:03.305Z,5.30
2022-12-01T14:33:52.056Z,5.20
2022-12-01T14:36:30.402Z,5.10
2022-12-01T14:39:06.869Z,5.20
2022-12-01T14:41:44.409Z,5.10
2022-12-01T14:44:24.090Z,5.10
2022-12-01T14:46:55.747Z,5.00
2022-12-01T14:49:27.435Z,5.00
2022-12-01T14:52:00.012Z,5.00
2022-12-01T14:54:34.046Z,4.90
2022-12-01T14:57:07.492Z,4.90
2022-12-01T14:59:37.372Z,4.90
2022-12-01T15:02:09.864Z,4.90
2022-12-01T15:05:08.136Z,4.70
2022-12-01T15:07:39.319Z,4.70
2022-12-01T15:10:18.122Z,4.70
2022-12-01T15:12:46.341Z,4.70
2022-12-01T15:15:23.578Z,4.70
2022-12-01T15:17:53.003Z,4.60
2022-12-01T15:20:33.996Z,4.50
2022-12-01T15:23:08.937Z,4.50
2022-12-01T15:25:38.354Z,4.50
2022-12-01T15:28:14.791Z,4.50
2022-12-01T15:30:44.466Z,4.50
2022-12-01T15:33:25.539Z,4.50
2022-12-01T15:35:56.025Z,4.40
2022-12-01T15:38:32.149Z,4.50
2022-12-01T15:43:56.990Z,4.40
2022-12-01T15:46:29.668Z,4.40
2022-12-01T15:49:17.946Z,4.30
2022-12-01T15:51:46.768Z,4.30
2022-12-01T15:54:21.530Z,4.30
2022-12-01T15:56:55.214Z,4.20
2022-12-01T15:59:29.795Z,4.20
2022-12-01T16:01:58.198Z,4.20
2022-12-01T16:04:29.055Z,4.10
2022-12-01T16:06:59.804Z,4.00
2022-12-01T16:09:33.156Z,4.00
2022-12-01T16:12:07.572Z,4.00
2022-12-01T16:14:36.077Z,3.90
2022-12-01T16:17:05.381Z,3.90
2022-12-01T16:19:35.958Z,3.90
2022-12-01T16:22:16.551Z,3.90
2022-12-01T16:24:48.565Z,3.90
2022-12-01T16:27:23.455Z,4.00
2022-12-01T16:29:53.572Z,3.90
2022-12-01T16:32:27.983Z,3.90
2022-12-01T16:34:55.980Z,3.90
2022-12-01T16:37:24.014Z,3.80
2022-12-01T16:39:51.896Z,3.80
2022-12-01T16:42:22.622Z,3.80
2022-12-01T16:44:51.686Z,3.80
2022-12-01T16:47:22.819Z,3.80
2022-12-01T16:49:51.019Z,3.80
2022-12-01T16:55:25.620Z,3.80
2022-12-01T16:57:55.326Z,3.80
2022-12-01T17:00:23.938Z,3.80
2022-12-01T17:02:52.751Z,3.80
2022-12-01T17:05:20.801Z,3.80
2022-12-01T17:07:48.937Z,3.80
2022-12-01T17:10:17.675Z,3.80
2022-12-01T17:12:45.577Z,3.80
2022-12-01T17:15:14.921Z,3.70
2022-12-01T17:17:42.860Z,3.70
2022-12-01T17:20:11.805Z,3.80
2022-12-01T17:22:39.954Z,3.70
2022-12-01T17:25:09.679Z,3.70
2022-12-01T17:27:37.945Z,3.80
2022-12-01T17:30:06.980Z,3.80
2022-12-01T17:32:36.428Z,3.80
2022-12-01T17:35:04.852Z,3.80
2022-12-01T17:37:32.925Z,3.70
2022-12-01T17:40:00.818Z,3.70
2022-12-01T17:42:31.131Z,3.70
2022-12-01T17:44:59.225Z,3.70
2022-12-01T17:47:27.798Z,3.70
2022-12-01T17:49:57.056Z,3.70
2022-12-01T17:52:28.332Z,3.60
2022-12-01T17:54:57.021Z,3.60
2022-12-01T17:57:25.041Z,3.60
2022-12-01T17:59:53.120Z,3.60
2022-12-01T18:02:21.198Z,3.60
2022-12-01T18:04:49.862Z,3.60
2022-12-01T18:07:19.542Z,3.50
2022-12-01T18:09:47.737Z,3.50
2022-12-01T18:12:15.697Z,3.60
2022-12-01T18:14:43.652Z,3.50
2022-12-01T18:17:11.605Z,3.50
2022-12-01T18:19:40.473Z,3.50
2022-12-01T18:22:08.362Z,3.50
2022-12-01T18:24:37.756Z,3.50
2022-12-01T18:27:05.758Z,3.50
2022-12-01T18:29:33.964Z,3.50
2022-12-01T18:32:05.631Z,3.50
2022-12-01T18:34:33.943Z,3.50
2022-12-01T18:37:03.082Z,3.50
2022-12-01T18:39:30.977Z,3.50
2022-12-01T18:42:00.269Z,3.50
2022-12-01T18:44:28.403Z,3.50
2022-12-01T18:46:57.722Z,3.50
2022-12-01T18:49:25.794Z,3.50
2022-12-01T18:51:54.017Z,3.50
2022-12-01T18:54:22.032Z,3.50
2022-12-01T18:56:52.601Z,3.40
2022-12-01T18:59:22.736Z,3.40
2022-12-01T19:01:50.747Z,3.40
2022-12-01T19:04:19.191Z,3.40
2022-12-01T19:06:47.251Z,3.40
2022-12-01T19:09:16.740Z,3.40
2022-12-01T19:11:44.991Z,3.40
2022-12-01T19:14:16.515Z,3.30
2022-12-01T19:16:46.620Z,3.30
2022-12-01T19:19:14.724Z,3.30
2022-12-01T19:21:42.963Z,3.30
2022-12-01T19:24:10.945Z,3.30
2022-12-01T19:26:39.178Z,3.30
2022-12-01T19:29:07.133Z,3.30
2022-12-01T19:31:35.203Z,3.20
2022-12-01T19:34:04.814Z,3.20
2022-12-01T19:36:32.936Z,3.20
2022-12-01T19:39:04.370Z,3.30
2022-12-01T19:41:35.165Z,3.30
2022-12-01T19:44:03.213Z,3.30
2022-12-01T19:46:31.151Z,3.30
2022-12-01T19:49:01.208Z,3.30
2022-12-01T19:51:32.467Z,3.30
2022-12-01T19:54:00.540Z,3.40
2022-12-01T19:56:29.517Z,3.30
2022-12-01T19:58:58.070Z,3.40
2022-12-01T20:01:27.051Z,3.30
2022-12-01T20:03:55.849Z,3.30
2022-12-01T20:06:27.278Z,3.30
2022-12-01T20:08:58.683Z,3.30
2022-12-01T20:11:29.592Z,3.30
2022-12-01T20:13:57.530Z,3.30
2022-12-01T20:16:27.646Z,3.40
2022-12-01T20:18:56.163Z,3.40
2022-12-01T20:21:25.853Z,3.40
2022-12-01T20:23:59.186Z,3.40
2022-12-01T20:26:31.948Z,3.30
2022-12-01T20:29:02.730Z,3.30
2022-12-01T20:31:32.814Z,3.30
2022-12-01T20:34:02.557Z,3.40
2022-12-01T20:36:30.998Z,3.50
2022-12-01T20:39:00.593Z,3.50
2022-12-01T20:41:28.589Z,3.50
2022-12-01T20:43:56.482Z,3.50
2022-12-01T20:46:24.726Z,3.50
2022-12-01T20:48:52.808Z,3.50
2022-12-01T20:51:20.777Z,3.50
2022-12-01T20:54:12.316Z,3.50
2022-12-01T20:56:38.112Z,3.60
2022-12-01T20:59:07.318Z,3.60
2022-12-01T21:01:35.883Z,3.60
2022-12-01T21:04:04.049Z,3.60
2022-12-01T21:06:32.194Z,3.60
2022-12-01T21:09:00.608Z,3.60
2022-12-01T21:11:44.501Z,3.60
2022-12-01T21:14:18.771Z,3.60
2022-12-01T21:16:49.305Z,3.60
2022-12-01T21:19:24.925Z,3.60
2022-12-01T21:21:52.876Z,3.60
2022-12-01T21:24:22.273Z,3.60
2022-12-01T21:26:54.860Z,3.60
2022-12-01T21:29:25.858Z,3.60
2022-12-01T21:31:55.470Z,3.60
2022-12-01T21:34:26.555Z,3.60
2022-12-01T21:36:57.358Z,3.60
2022-12-01T21:39:26.424Z,3.60
2022-12-01T21:41:57.274Z,3.60
2022-12-01T21:44:33.448Z,3.70
2022-12-01T21:47:14.360Z,3.70
2022-12-01T21:49:43.675Z,3.70
2022-12-01T21:52:16.244Z,3.70
2022-12-01T21:54:44.215Z,3.70
2022-12-01T21:57:30.214Z,3.80
2022-12-01T22:00:24.102Z,3.70
2022-12-01T22:03:06.794Z,3.70
2022-12-01T22:05:39.412Z,3.70
2022-12-01T22:08:18.040Z,3.70
2022-12-01T22:10:57.716Z,3.70
2022-12-01T22:13:28.285Z,3.70
2022-12-01T22:15:58.247Z,3.70
2022-12-01T22:18:32.923Z,3.70
2022-12-01T22:21:10.923Z,3.70
2022-12-01T22:23:41.455Z,3.70
2022-12-01T22:26:18.732Z,3.70
2022-12-01T22:28:48.973Z,3.70
2022-12-01T22:31:23.525Z,3.60
2022-12-01T22:34:02.681Z,3.60
2022-12-01T22:36:35.272Z,3.50
2022-12-01T22:39:13.598Z,3.40
2022-12-01T22:41:43.421Z,3.40
2022-12-01T22:44:15.344Z,3.40
2022-12-01T22:46:46.596Z,3.40
2022-12-01T22:49:20.123Z,3.40
2022-12-01T22:51:50.268Z,3.40
2022-12-01T22:54:31.321Z,3.40
2022-12-01T22:57:17.497Z,3.30
2022-12-01T22:59:47.687Z,3.30
2022-12-01T23:02:22.478Z,3.30
2022-12-01T23:04:53.267Z,3.30
2022-12-01T23:07:32.847Z,3.20
2022-12-01T23:10:07.113Z,3.20
2022-12-01T23:12:36.911Z,3.20
2022-12-01T23:15:23.628Z,3.20
2022-12-01T23:17:53.151Z,3.20
2022-12-01T23:20:32.315Z,3.20
2022-12-01T23:23:02.367Z,3.30
2022-12-01T23:25:30.656Z,3.30
2022-12-01T23:28:01.349Z,3.30
2022-12-01T23:30:29.418Z,3.40
2022-12-01T23:33:10.798Z,3.40
2022-12-01T23:35:42.553Z,3.40
2022-12-01T23:38:16.545Z,3.30
2022-12-01T23:40:44.643Z,3.30
2022-12-01T23:43:19.779Z,3.40
2022-12-01T23:45:48.663Z,3.40
2022-12-01T23:48:23.655Z,3.30
2022-12-01T23:50:54.463Z,3.20
2022-12-01T23:53:28.428Z,3.20
2022-12-01T23:55:57.801Z,3.20
2022-12-01T23:58:25.798Z,3.20
